.
WxDataArchive / Data Records for 2010-03-27
2010-03-26 March 2010 2010-03-28

Data Records for Saturday, 27 March 2010

Time	Temp	Chill	HIndex	Humid	Dewpt	 Wind 	HiWind	WindDir	Rain 	Barom 
-----	----	-----	------	-----	-----	------	------	-------	-----	----- 
00:00	30.3	30.3	30.3	68	21.0	0	2	135	0.00	30.225 
00:05	30.1	30.1	30.1	68	20.8	0	1	135	0.00	30.225 
00:10	30.1	30.1	30.1	68	20.8	0	2	135	0.00	30.225 
00:15	30.0	30.0	30.0	68	20.7	0	1	135	0.00	30.227 
00:20	30.0	30.0	30.0	68	20.7	0	1	135	0.00	30.227 
00:25	29.8	29.8	29.8	69	20.9	0	1	135	0.00	30.227 
00:30	29.7	29.7	29.7	69	20.8	0	2	135	0.00	30.224 
00:35	29.7	29.7	29.7	69	20.8	1	2	90	0.00	30.224 
00:40	29.7	29.7	29.7	69	20.8	0	2	90	0.00	30.224 
00:45	29.7	29.7	29.7	70	21.1	0	2	90	0.00	30.224 
00:50	29.5	29.5	29.5	70	20.9	0	1	90	0.00	30.224 
00:55	29.4	29.4	29.4	70	20.8	0	2	90	0.00	30.224 
01:00	29.4	29.4	29.4	70	20.8	0	2	90	0.00	30.224 
01:05	29.3	29.3	29.3	71	21.1	0	2	90	0.00	30.224 
01:10	29.1	29.1	29.1	71	20.9	0	2	90	0.00	30.224 
01:15	29.1	29.1	29.1	72	21.2	0	2	90	0.00	30.221 
01:20	29.0	29.0	29.0	72	21.1	0	1	90	0.00	30.221 
01:25	28.8	28.8	28.8	73	21.3	0	2	90	0.00	30.221 
01:30	28.8	28.8	28.8	73	21.3	0	2	90	0.00	30.220 
01:35	28.7	28.7	28.7	73	21.2	0	2	90	0.00	30.220 
01:40	28.5	28.5	28.5	73	21.0	0	2	90	0.00	30.220 
01:45	28.5	28.5	28.5	73	21.0	1	3	90	0.00	30.216 
01:50	28.5	28.5	28.5	73	21.0	1	3	90	0.00	30.216 
01:55	28.5	28.5	28.5	73	21.0	0	3	90	0.00	30.216 
02:00	28.5	28.5	28.5	74	21.3	1	2	90	0.00	30.213 
02:05	28.4	28.4	28.4	74	21.2	0	2	90	0.00	30.213 
02:10	28.2	28.2	28.2	75	21.3	1	3	90	0.00	30.213 
02:15	28.2	28.2	28.2	75	21.3	0	2	90	0.00	30.212 
02:20	28.1	28.1	28.1	75	21.2	0	2	90	0.00	30.212 
02:25	27.9	27.9	27.9	75	21.0	0	2	90	0.00	30.212 
02:30	27.8	27.8	27.8	75	20.9	0	2	90	0.00	30.215 
02:35	27.8	27.8	27.8	75	20.9	0	3	90	0.00	30.215 
02:40	27.8	27.8	27.8	75	20.9	0	3	90	0.00	30.215 
02:45	27.6	27.6	27.6	75	20.7	0	1	90	0.00	30.220 
02:50	27.5	27.5	27.5	76	20.9	0	2	90	0.00	30.220 
02:55	27.5	27.5	27.5	76	20.9	0	1	90	0.00	30.220 
03:00	27.3	27.3	27.3	76	20.8	0	0	---	0.00	30.227 
03:05	27.2	27.2	27.2	76	20.7	0	1	90	0.00	30.227 
03:10	27.0	27.0	27.0	76	20.5	0	1	90	0.00	30.227 
03:15	27.0	27.0	27.0	76	20.5	0	1	90	0.00	30.225 
03:20	27.0	27.0	27.0	77	20.8	0	0	---	0.00	30.225 
03:25	26.9	26.9	26.9	76	20.4	0	0	---	0.00	30.225 
03:30	26.7	26.7	26.7	77	20.5	0	1	90	0.00	30.224 
03:35	26.7	26.7	26.7	77	20.5	0	0	---	0.00	30.224 
03:40	26.6	26.6	26.6	77	20.4	0	1	90	0.00	30.224 
03:45	26.6	26.6	26.6	78	20.7	0	2	90	0.00	30.213 
03:50	26.6	26.6	26.6	78	20.7	0	2	90	0.00	30.213 
03:55	26.6	26.6	26.6	79	21.0	0	2	90	0.00	30.213 
04:00	26.4	26.4	26.4	79	20.8	0	2	90	0.00	30.213 
04:05	26.4	26.4	26.4	79	20.8	0	2	90	0.00	30.213 
04:10	26.4	26.4	26.4	79	20.8	0	3	90	0.00	30.213 
04:15	26.3	26.3	26.3	79	20.7	0	2	90	0.00	30.211 
04:20	26.3	26.3	26.3	79	20.7	1	2	90	0.00	30.211 
04:25	26.3	26.3	26.3	79	20.7	0	2	90	0.00	30.211 
04:30	26.3	26.3	26.3	80	21.0	0	2	90	0.00	30.210 
04:35	26.3	26.3	26.3	80	21.0	0	1	90	0.00	30.210 
04:40	26.3	26.3	26.3	79	20.7	0	2	90	0.00	30.210 
04:45	26.4	26.4	26.4	78	20.5	0	1	90	0.00	30.215 
04:50	26.4	26.4	26.4	78	20.5	1	2	90	0.00	30.215 
04:55	26.4	26.4	26.4	78	20.5	0	2	90	0.00	30.215 
05:00	26.4	26.4	26.4	78	20.5	0	1	90	0.00	30.219 
05:05	26.4	26.4	26.4	78	20.5	0	0	---	0.00	30.219 
05:10	26.3	26.3	26.3	77	20.1	0	0	---	0.00	30.219 
05:15	26.1	26.1	26.1	77	19.9	0	0	---	0.00	30.226 
05:20	26.0	26.0	26.0	77	19.8	0	0	---	0.00	30.226 
05:25	25.8	25.8	25.8	78	19.9	0	0	---	0.00	30.226 
05:30	25.7	25.7	25.7	78	19.8	0	1	90	0.00	30.225 
05:35	25.7	25.7	25.7	79	20.1	0	1	90	0.00	30.225 
05:40	25.8	25.8	25.8	78	19.9	0	1	90	0.00	30.225 
05:45	25.8	25.8	25.8	78	19.9	0	2	90	0.00	30.223 
05:50	26.0	26.0	26.0	77	19.8	1	2	90	0.00	30.223 
05:55	26.0	26.0	26.0	77	19.8	0	2	90	0.00	30.223 
06:00	25.8	25.8	25.8	77	19.6	0	2	90	0.00	30.225 
06:05	25.8	25.8	25.8	77	19.6	1	2	90	0.00	30.225 
06:10	25.8	25.8	25.8	77	19.6	1	2	90	0.00	30.225 
06:15	25.7	25.7	25.7	77	19.5	1	2	90	0.00	30.225 
06:20	25.7	25.7	25.7	77	19.5	0	2	90	0.00	30.225 
06:25	25.6	25.6	25.6	77	19.4	0	2	90	0.00	30.225 
06:30	25.6	25.6	25.6	76	19.1	1	3	90	0.00	30.223 
06:35	25.6	25.6	25.6	77	19.4	1	3	90	0.00	30.223 
06:40	25.6	25.6	25.6	77	19.4	0	2	90	0.00	30.223 
06:45	25.6	25.6	25.6	76	19.1	1	2	90	0.00	30.227 
06:50	25.4	25.4	25.4	76	18.9	1	2	90	0.00	30.227 
06:55	25.4	25.4	25.4	76	18.9	1	4	90	0.00	30.227 
07:00	25.4	25.4	25.4	76	18.9	1	2	90	0.00	30.216 
07:05	25.4	25.4	25.4	76	18.9	1	3	90	0.00	30.216 
07:10	25.4	25.4	25.4	76	18.9	1	2	90	0.00	30.216 
07:15	25.3	25.3	25.3	76	18.8	1	3	90	0.00	30.217 
07:20	25.3	25.3	25.3	75	18.5	1	3	90	0.00	30.217 
07:25	25.4	25.4	25.4	75	18.6	1	3	90	0.00	30.217 
07:30	25.4	25.4	25.4	75	18.6	1	4	90	0.00	30.222 
07:35	25.4	25.4	25.4	75	18.6	1	4	90	0.00	30.222 
07:40	25.4	25.4	25.4	75	18.6	0	2	90	0.00	30.222 
07:45	25.4	25.4	25.4	74	18.3	0	2	90	0.00	30.231 
07:50	25.4	25.4	25.4	74	18.3	0	1	90	0.00	30.231 
07:55	25.4	25.4	25.4	75	18.6	1	2	90	0.00	30.231 
08:00	25.6	25.6	25.6	75	18.8	0	2	90	0.00	30.231 
08:05	25.6	25.6	25.6	75	18.8	1	2	90	0.00	30.231 
08:10	25.7	25.7	25.7	74	18.6	1	3	90	0.00	30.231 
08:15	25.8	25.8	25.8	74	18.7	1	2	90	0.00	30.239 
08:20	26.1	26.1	26.1	74	19.0	1	3	90	0.00	30.239 
08:25	26.3	26.3	26.3	74	19.2	1	3	90	0.00	30.239 
08:30	26.4	26.4	26.4	74	19.3	2	5	112	0.00	30.233 
08:35	26.6	26.6	26.6	73	19.1	2	3	90	0.00	30.233 
08:40	26.9	26.9	26.9	73	19.4	2	5	90	0.00	30.233 
08:45	27.0	27.0	27.0	74	19.8	1	6	112	0.00	30.232 
08:50	27.3	27.3	27.3	74	20.1	1	6	112	0.00	30.232 
08:55	27.8	27.8	27.8	73	20.3	0	2	112	0.00	30.232 
09:00	28.1	28.1	28.1	72	20.3	1	4	90	0.00	30.243 
09:05	28.4	28.4	28.4	70	19.9	2	4	90	0.00	30.243 
09:10	28.7	28.7	28.7	69	19.8	1	5	90	0.00	30.243 
09:15	29.1	29.1	29.1	68	19.9	2	4	90	0.00	30.244 
09:20	29.4	29.4	29.4	66	19.5	3	5	90	0.00	30.244 
09:25	29.7	29.7	29.7	66	19.8	2	4	112	0.00	30.244 
09:30	30.0	30.0	30.0	66	20.0	1	4	112	0.00	30.247 
09:35	30.1	30.1	30.1	65	19.8	3	5	90	0.00	30.247 
09:40	30.4	30.4	30.4	65	20.1	2	9	90	0.00	30.247 
09:45	30.7	30.7	30.7	65	20.3	2	5	90	0.00	30.244 
09:50	31.2	27.2	31.2	64	20.5	4	7	90	0.00	30.244 
09:55	31.6	31.6	31.6	64	20.8	3	7	112	0.00	30.244 
10:00	31.8	31.8	31.8	65	21.4	3	5	90	0.00	30.244 
10:05	31.9	31.9	31.9	65	21.5	3	5	112	0.00	30.244 
10:10	31.9	31.9	31.9	65	21.5	2	6	112	0.00	30.244 
10:15	32.2	32.2	32.2	66	22.1	2	5	112	0.00	30.246 
10:20	32.4	32.4	32.4	65	22.0	2	6	112	0.00	30.246 
10:25	32.5	28.7	32.5	63	21.3	4	9	90	0.00	30.246 
10:30	32.8	32.8	32.8	64	22.0	1	4	112	0.00	30.240 
10:35	33.1	29.3	33.1	63	21.9	4	7	112	0.00	30.240 
10:40	33.4	33.4	33.4	64	22.6	2	6	112	0.00	30.240 
10:45	33.7	33.7	33.7	63	22.5	3	6	90	0.00	30.237 
10:50	33.8	33.8	33.8	63	22.6	3	6	90	0.00	30.237 
10:55	34.1	34.1	34.1	63	22.8	3	6	90	0.00	30.237 
11:00	34.6	34.6	34.6	62	22.9	3	5	112	0.00	30.238 
11:05	35.2	35.2	35.2	61	23.1	3	6	112	0.00	30.238 
11:10	35.5	35.5	35.5	61	23.4	3	7	112	0.00	30.238 
11:15	35.8	35.8	35.8	60	23.3	3	6	90	0.00	30.229 
11:20	36.3	36.3	36.3	59	23.4	3	9	90	0.00	30.229 
11:25	36.8	36.8	36.8	60	24.2	3	8	112	0.00	30.229 
11:30	37.2	37.2	37.2	59	24.2	3	7	112	0.00	30.227 
11:35	37.8	37.8	37.8	59	24.8	2	7	90	0.00	30.227 
11:40	38.3	38.3	38.3	58	24.8	3	7	112	0.00	30.227 
11:45	38.9	38.9	38.9	56	24.6	2	6	112	0.00	30.218 
11:50	39.5	39.5	39.5	55	24.7	2	5	90	0.00	30.218 
11:55	40.1	40.1	40.1	56	25.7	1	5	112	0.00	30.218 
12:00	40.2	40.2	40.2	56	25.8	3	11	90	0.00	30.213 
12:05	40.5	40.5	40.5	57	26.5	2	5	112	0.00	30.213 
12:10	40.9	40.9	40.9	55	26.0	3	6	112	0.00	30.213 
12:15	41.1	41.1	41.1	54	25.7	2	5	90	0.00	30.209 
12:20	41.5	41.5	41.5	54	26.1	2	6	90	0.00	30.209 
12:25	41.9	41.9	41.9	54	26.5	2	10	112	0.00	30.209 
12:30	42.2	42.2	42.2	56	27.6	1	5	112	0.00	30.203 
12:35	42.5	42.5	42.5	55	27.5	3	10	112	0.00	30.203 
12:40	42.3	42.3	42.3	54	26.9	3	7	112	0.00	30.203 
12:45	42.9	42.9	42.9	54	27.4	2	9	112	0.00	30.187 
12:50	43.6	43.6	43.6	53	27.6	2	8	90	0.00	30.187 
12:55	44.3	44.3	44.3	53	28.3	1	5	112	0.00	30.187 
13:00	44.9	44.9	44.9	50	27.4	2	6	112	0.00	30.181 
13:05	45.1	45.1	45.1	50	27.6	3	7	90	0.00	30.181 
13:10	44.8	44.8	44.8	50	27.3	3	10	112	0.00	30.181 
13:15	44.9	44.9	44.9	49	26.9	3	7	90	0.00	30.172 
13:20	45.2	45.2	45.2	50	27.7	2	5	68	0.00	30.172 
13:25	45.7	43.9	45.7	51	28.6	4	11	90	0.00	30.172 
13:30	46.0	46.0	46.0	47	26.9	3	9	90	0.00	30.161 
13:35	46.1	44.4	46.1	50	28.5	4	10	112	0.00	30.161 
13:40	46.4	46.4	46.4	49	28.3	3	11	112	0.00	30.161 
13:45	46.5	46.5	46.5	47	27.4	3	7	90	0.00	30.149 
13:50	47.0	47.0	47.0	50	29.3	3	7	112	0.00	30.149 
13:55	47.0	47.0	47.0	49	28.8	3	7	112	0.00	30.149 
14:00	47.3	47.3	47.3	51	30.1	3	7	112	0.00	30.134 
14:05	47.6	46.1	47.6	49	29.4	4	9	112	0.00	30.134 
14:10	47.9	46.4	47.9	49	29.7	4	11	90	0.00	30.134 
14:15	47.7	46.2	47.7	47	28.5	4	9	112	0.00	30.125 
14:20	47.6	44.8	47.6	48	28.9	6	13	90	0.00	30.125 
14:25	47.9	47.9	47.9	47	28.7	3	7	90	0.00	30.125 
14:30	48.3	48.3	48.3	50	30.5	2	7	90	0.00	30.121 
14:35	48.3	48.3	48.3	47	29.0	3	9	112	0.00	30.121 
14:40	48.5	48.5	48.5	46	28.7	3	9	112	0.00	30.121 
14:45	48.6	48.6	48.6	49	30.3	3	10	112	0.00	30.106 
14:50	48.9	47.6	48.9	47	29.6	4	10	112	0.00	30.106 
14:55	48.9	48.9	48.9	49	30.6	3	7	112	0.00	30.106 
15:00	48.8	46.8	48.8	47	29.5	5	12	112	0.00	30.098 
15:05	48.6	47.3	48.6	47	29.3	4	8	112	0.00	30.098 
15:10	48.9	48.9	48.9	49	30.6	3	6	90	0.00	30.098 
15:15	49.4	48.2	49.4	46	29.5	4	10	90	0.00	30.092 
15:20	49.6	48.4	49.6	47	30.2	4	9	112	0.00	30.092 
15:25	49.9	49.9	49.9	47	30.5	3	6	112	0.00	30.092 
15:30	50.1	50.1	50.1	46	30.1	4	9	112	0.00	30.076 
15:35	49.9	49.9	49.9	44	28.9	3	9	112	0.00	30.076 
15:40	50.1	50.1	50.1	46	30.1	4	9	90	0.00	30.076 
15:45	50.1	50.1	50.1	46	30.1	4	8	112	0.00	30.062 
15:50	49.9	48.1	49.9	46	30.0	5	10	112	0.00	30.062 
15:55	50.1	50.1	50.1	46	30.1	5	11	112	0.00	30.062 
16:00	50.2	50.2	50.2	46	30.2	4	12	90	0.00	30.048 
16:05	50.4	50.4	50.4	46	30.4	3	10	112	0.00	30.048 
16:10	50.7	50.7	50.7	47	31.2	5	13	112	0.00	30.048 
16:15	50.7	50.7	50.7	44	29.6	4	11	90	0.00	30.038 
16:20	50.7	50.7	50.7	46	30.7	5	13	90	0.00	30.038 
16:25	50.7	50.7	50.7	43	29.0	6	12	112	0.00	30.038 
16:30	50.8	50.8	50.8	45	30.2	6	16	90	0.00	30.027 
16:35	51.1	51.1	51.1	44	30.0	4	9	90	0.00	30.027 
16:40	51.3	51.3	51.3	44	30.1	4	13	112	0.00	30.027 
16:45	51.1	51.1	51.1	43	29.4	4	10	112	0.00	30.026 
16:50	51.3	51.3	51.3	44	30.1	4	12	112	0.00	30.026 
16:55	51.3	51.3	51.3	42	29.0	3	7	112	0.00	30.026 
17:00	51.4	51.4	51.4	42	29.1	4	8	90	0.00	30.023 
17:05	51.6	51.6	51.6	43	29.8	5	13	90	0.00	30.023 
17:10	51.6	51.6	51.6	41	28.7	3	11	112	0.00	30.023 
17:15	51.3	51.3	51.3	40	27.8	5	13	112	0.00	30.007 
17:20	51.0	51.0	51.0	41	28.1	4	12	112	0.00	30.007 
17:25	51.1	51.1	51.1	40	27.6	5	11	90	0.00	30.007 
17:30	51.0	51.0	51.0	41	28.1	5	11	90	0.00	29.996 
17:35	51.1	51.1	51.1	42	28.8	4	10	112	0.00	29.996 
17:40	51.1	51.1	51.1	42	28.8	4	8	112	0.00	29.996 
17:45	51.1	51.1	51.1	40	27.6	5	13	90	0.00	29.995 
17:50	51.0	51.0	51.0	41	28.1	4	10	112	0.00	29.995 
17:55	51.0	51.0	51.0	40	27.5	4	10	90	0.00	29.995 
18:00	51.1	51.1	51.1	41	28.2	5	12	112	0.00	29.995 
18:05	51.3	51.3	51.3	41	28.4	4	9	112	0.00	29.995 
18:10	51.1	51.1	51.1	41	28.2	4	10	112	0.00	29.995 
18:15	50.8	50.8	50.8	42	28.5	5	11	112	0.00	29.994 
18:20	50.7	50.7	50.7	42	28.5	4	11	90	0.00	29.994 
18:25	50.5	50.5	50.5	41	27.7	4	10	90	0.00	29.994 
18:30	50.5	50.5	50.5	43	28.8	3	7	90	0.00	29.991 
18:35	50.5	50.5	50.5	41	27.7	3	7	112	0.00	29.991 
18:40	50.5	50.5	50.5	41	27.7	4	7	112	0.00	29.991 
18:45	50.5	50.5	50.5	43	28.8	4	6	112	0.00	29.991 
18:50	50.4	50.4	50.4	45	29.9	3	6	112	0.00	29.991 
18:55	50.1	50.1	50.1	46	30.1	5	9	90	0.00	29.991 
19:00	49.9	49.9	49.9	48	31.0	3	7	112	0.00	29.987 
19:05	49.8	48.6	49.8	48	30.9	4	10	90	0.00	29.987 
19:10	49.5	48.3	49.5	49	31.1	4	9	112	0.00	29.987 
19:15	49.4	48.2	49.4	50	31.5	4	10	90	0.00	29.981 
19:20	49.1	47.8	49.1	50	31.3	4	6	112	0.00	29.981 
19:25	48.9	48.9	48.9	51	31.6	3	6	112	0.00	29.981 
19:30	48.6	47.3	48.6	51	31.3	4	10	90	0.00	29.974 
19:35	48.5	48.5	48.5	53	32.2	3	10	112	0.00	29.974 
19:40	48.2	46.8	48.2	53	31.9	4	7	112	0.00	29.974 
19:45	48.0	46.6	48.0	53	31.7	4	6	90	0.00	29.972 
19:50	47.9	47.9	47.9	54	32.1	3	6	90	0.00	29.972 
19:55	47.6	47.6	47.6	54	31.8	3	6	112	0.00	29.972 
20:00	47.3	47.3	47.3	54	31.5	3	6	90	0.00	29.969 
20:05	47.0	47.0	47.0	55	31.7	3	7	90	0.00	29.969 
20:10	46.8	46.8	46.8	55	31.5	3	7	90	0.00	29.969 
20:15	46.5	46.5	46.5	56	31.7	3	7	112	0.00	29.962 
20:20	46.4	44.7	46.4	56	31.6	4	10	90	0.00	29.962 
20:25	46.1	46.1	46.1	57	31.7	3	7	112	0.00	29.962 
20:30	46.0	46.0	46.0	57	31.6	3	6	112	0.00	29.962 
20:35	45.7	45.7	45.7	58	31.8	3	5	68	0.00	29.962 
20:40	45.5	45.5	45.5	58	31.6	3	7	112	0.00	29.962 
20:45	45.5	45.5	45.5	58	31.6	3	9	90	0.00	29.960 
20:50	45.5	43.7	45.5	58	31.6	4	7	90	0.00	29.960 
20:55	45.4	43.6	45.4	58	31.5	4	7	90	0.00	29.960 
21:00	45.2	43.3	45.2	59	31.7	4	9	90	0.00	29.955 
21:05	45.1	45.1	45.1	59	31.6	3	7	90	0.00	29.955 
21:10	44.9	44.9	44.9	60	31.9	2	5	90	0.00	29.955 
21:15	44.6	44.6	44.6	61	32.0	2	7	90	0.00	29.944 
21:20	44.3	44.3	44.3	62	32.1	3	8	90	0.00	29.944 
21:25	44.2	44.2	44.2	62	32.0	3	6	90	0.00	29.944 
21:30	44.1	44.1	44.1	62	31.9	2	4	90	0.00	29.947 
21:35	43.9	43.9	43.9	62	31.7	2	5	90	0.00	29.947 
21:40	43.9	43.9	43.9	62	31.7	2	6	90	0.00	29.947 
21:45	43.9	41.8	43.9	61	31.3	4	10	90	0.00	29.940 
21:50	44.1	44.1	44.1	60	31.1	3	7	90	0.00	29.940 
21:55	44.2	44.2	44.2	60	31.2	3	9	90	0.00	29.940 
22:00	44.2	44.2	44.2	61	31.6	2	6	90	0.00	29.934 
22:05	44.1	44.1	44.1	61	31.5	2	5	90	0.00	29.934 
22:10	44.1	44.1	44.1	60	31.1	3	6	90	0.00	29.934 
22:15	44.2	44.2	44.2	61	31.6	3	7	90	0.00	29.932 
22:20	44.2	44.2	44.2	61	31.6	2	5	90	0.00	29.932 
22:25	44.3	44.3	44.3	61	31.7	2	6	90	0.00	29.932 
22:30	44.3	44.3	44.3	61	31.7	1	4	112	0.00	29.949 
22:35	44.3	44.3	44.3	61	31.7	1	4	112	0.00	29.949 
22:40	43.9	43.9	43.9	62	31.7	2	6	112	0.00	29.949 
22:45	43.3	43.3	43.3	64	32.0	1	4	90	0.00	29.950 
22:50	42.9	42.9	42.9	65	32.0	0	2	45	0.00	29.950 
22:55	42.5	42.5	42.5	67	32.3	1	3	112	0.00	29.950 
23:00	42.2	42.2	42.2	68	32.4	1	3	45	0.00	29.952 
23:05	41.9	41.9	41.9	70	32.8	1	3	22	0.00	29.952 
23:10	41.6	41.6	41.6	71	32.9	1	3	112	0.00	29.952 
23:15	41.3	41.3	41.3	72	33.0	1	3	112	0.00	29.948 
23:20	41.2	41.2	41.2	72	32.9	2	5	90	0.00	29.948 
23:25	41.1	41.1	41.1	73	33.1	1	5	90	0.00	29.948 
23:30	40.9	40.9	40.9	73	32.9	1	4	90	0.00	29.944 
23:35	40.9	40.9	40.9	73	32.9	2	5	90	0.00	29.944 
23:40	40.8	40.8	40.8	73	32.8	1	4	90	0.00	29.944 
23:45	40.6	40.6	40.6	73	32.6	1	4	90	0.00	29.939 
23:50	40.3	40.3	40.3	73	32.3	1	5	90	0.00	29.939 
23:55	40.2	40.2	40.2	73	32.2	3	6	90	0.00	29.939 

CoCoRaHS
IN-AL-39
A2 Web Hosting
Creative Commons License
GoDaddy
search engine by freefind advanced

loaded 2018-11-15 17:45:28 • last modified 2010-11-18 10:43:29
Privacy PolicyDisclaimer
• wx.awcolley.com is powered by PmWiki v.2002016 •
• all content (unless otherwise noted) © 2018 A W Colley